createdAt,value
2022-11-27T00:00:18.944Z,102084.09
2022-11-27T00:02:45.400Z,102089.44
2022-11-27T00:05:11.931Z,102091.03
2022-11-27T00:07:38.466Z,102047.25
2022-11-27T00:10:05.248Z,102078.22
2022-11-27T00:12:31.686Z,102070.19
2022-11-27T00:14:58.290Z,102070.31
2022-11-27T00:17:24.970Z,102068.59
2022-11-27T00:19:51.365Z,102072.25
2022-11-27T00:22:17.716Z,102054.91
2022-11-27T00:24:44.179Z,102065.19
2022-11-27T00:27:10.924Z,102066.03
2022-11-27T00:29:37.387Z,102059.56
2022-11-27T00:32:06.453Z,102059.56
2022-11-27T00:34:32.830Z,102060.44
2022-11-27T00:36:59.149Z,102062.97
2022-11-27T00:39:25.506Z,102062.72
2022-11-27T00:41:51.864Z,102071.88
2022-11-27T00:44:18.310Z,102065.53
2022-11-27T00:46:45.114Z,102057.59
2022-11-27T00:49:13.836Z,102050.28
2022-11-27T00:51:40.548Z,102050.28
2022-11-27T00:54:09.973Z,102040.53
2022-11-27T00:56:37.474Z,102039.94
2022-11-27T00:59:04.883Z,102042.13
2022-11-27T01:01:33.094Z,102046.88
2022-11-27T01:04:02.394Z,102047.88
2022-11-27T01:06:29.405Z,102038.00
2022-11-27T01:08:56.954Z,102040.81
2022-11-27T01:11:28.019Z,102045.19
2022-11-27T01:13:56.512Z,102047.88
2022-11-27T01:16:23.996Z,102047.63
2022-11-27T01:18:51.040Z,102034.31
2022-11-27T01:21:18.898Z,102037.84
2022-11-27T01:23:45.485Z,102043.94
2022-11-27T01:26:12.815Z,102046.03
2022-11-27T01:28:41.679Z,102033.59
2022-11-27T01:31:09.738Z,102045.88
2022-11-27T01:33:36.223Z,102036.88
2022-11-27T01:36:04.051Z,102043.84
2022-11-27T01:38:30.656Z,102040.06
2022-11-27T01:40:58.718Z,102037.13
2022-11-27T01:43:48.814Z,102041.88
2022-11-27T01:46:39.256Z,102038.34
2022-11-27T01:49:08.682Z,102025.78
2022-11-27T01:51:37.185Z,102023.22
2022-11-27T01:54:03.719Z,102030.66
2022-11-27T01:56:30.209Z,102011.50
2022-11-27T01:58:58.229Z,102021.28
2022-11-27T02:01:26.371Z,102014.91
2022-11-27T02:03:54.034Z,102015.91
2022-11-27T02:06:20.655Z,102011.53
2022-11-27T02:08:47.048Z,102001.28
2022-11-27T02:11:18.592Z,101998.81
2022-11-27T02:13:51.011Z,102000.56
2022-11-27T02:16:34.468Z,102000.91
2022-11-27T02:19:21.343Z,101995.44
2022-11-27T02:22:03.341Z,101993.00
2022-11-27T02:24:32.721Z,101989.44
2022-11-27T02:27:10.785Z,101979.06
2022-11-27T02:29:38.652Z,101977.38
2022-11-27T02:32:15.718Z,101975.44
2022-11-27T02:34:45.286Z,101975.69
2022-11-27T02:37:11.703Z,101977.38
2022-11-27T02:39:45.969Z,101982.50
2022-11-27T02:42:16.744Z,101984.19
2022-11-27T02:44:46.764Z,101984.19
2022-11-27T02:47:14.376Z,101979.31
2022-11-27T02:49:41.951Z,101977.63
2022-11-27T02:52:09.492Z,101975.06
2022-11-27T02:54:36.579Z,101962.75
2022-11-27T02:57:05.243Z,101956.66
2022-11-27T02:59:34.279Z,101940.91
2022-11-27T03:02:10.652Z,101941.03
2022-11-27T03:04:46.555Z,101938.75
2022-11-27T03:07:16.829Z,101945.69
2022-11-27T03:09:45.058Z,101932.53
2022-11-27T03:12:12.234Z,101938.13
2022-11-27T03:14:39.984Z,101941.81
2022-11-27T03:17:22.364Z,101938.25
2022-11-27T03:19:53.326Z,101931.06
2022-11-27T03:22:19.944Z,101925.47
2022-11-27T03:25:12.279Z,101932.53
2022-11-27T03:27:53.551Z,101920.81
2022-11-27T03:30:20.163Z,101920.56
2022-11-27T03:32:46.940Z,101926.53
2022-11-27T03:35:14.965Z,101925.47
2022-11-27T03:37:41.669Z,101926.69
2022-11-27T03:40:08.734Z,101918.13
2022-11-27T03:42:43.323Z,101923.75
2022-11-27T03:45:23.265Z,101926.69
2022-11-27T03:47:49.671Z,101920.47
2022-11-27T03:50:25.471Z,101932.28
2022-11-27T03:52:54.693Z,101922.03
2022-11-27T03:55:42.368Z,101915.47
2022-11-27T03:58:11.696Z,101917.66
2022-11-27T04:00:40.333Z,101911.81
2022-11-27T04:03:09.865Z,101909.00
2022-11-27T04:05:37.130Z,101921.19
2022-11-27T04:08:04.560Z,101912.03
2022-11-27T04:10:32.207Z,101915.69
2022-11-27T04:12:59.616Z,101903.03
2022-11-27T04:15:26.065Z,101897.66
2022-11-27T04:17:52.393Z,101894.34
2022-11-27T04:20:19.271Z,101906.91
2022-11-27T04:22:45.699Z,101894.69
2022-11-27T04:25:12.067Z,101890.81
2022-11-27T04:27:38.424Z,101894.69
2022-11-27T04:30:05.128Z,101891.66
2022-11-27T04:32:31.471Z,101881.78
2022-11-27T04:34:57.792Z,101870.56
2022-11-27T04:37:24.233Z,101864.25
2022-11-27T04:39:50.783Z,101863.25
2022-11-27T04:42:17.113Z,101864.69
2022-11-27T04:44:45.439Z,101849.34
2022-11-27T04:47:15.398Z,101850.91
2022-11-27T04:49:41.848Z,101846.53
2022-11-27T04:52:08.184Z,101837.88
2022-11-27T04:54:34.649Z,101837.88
2022-11-27T04:57:00.988Z,101841.66
2022-11-27T04:59:29.205Z,101838.84
2022-11-27T05:01:56.490Z,101838.97
2022-11-27T05:04:23.242Z,101839.84
2022-11-27T05:06:49.903Z,101832.13
2022-11-27T05:09:20.438Z,101824.81
2022-11-27T05:11:49.770Z,101829.31
2022-11-27T05:14:16.957Z,101822.25
2022-11-27T05:16:45.633Z,101826.38
2022-11-27T05:19:12.158Z,101821.03
2022-11-27T05:21:38.583Z,101821.28
2022-11-27T05:24:05.252Z,101768.69
2022-11-27T05:26:31.880Z,101803.09
2022-11-27T05:28:58.364Z,101811.03
2022-11-27T05:31:24.940Z,101813.59
2022-11-27T05:33:51.609Z,101809.53
2022-11-27T05:36:18.069Z,101800.75
2022-11-27T05:38:44.550Z,101801.00
2022-11-27T05:41:11.024Z,101790.88
2022-11-27T05:43:37.453Z,101808.53
2022-11-27T05:46:07.269Z,101801.34
2022-11-27T05:48:34.503Z,101793.31
2022-11-27T05:51:01.655Z,101796.38
2022-11-27T05:53:29.145Z,101803.31
2022-11-27T05:56:01.086Z,101798.66
2022-11-27T05:58:27.472Z,101794.63
2022-11-27T06:00:53.922Z,101791.81
2022-11-27T06:03:20.580Z,101791.94
2022-11-27T06:05:47.051Z,101781.19
2022-11-27T06:08:13.532Z,101791.06
2022-11-27T06:10:40.315Z,101777.66
2022-11-27T06:13:06.974Z,101772.03
2022-11-27T06:15:35.343Z,101766.66
2022-11-27T06:18:01.655Z,101763.84
2022-11-27T06:20:28.036Z,101772.50
2022-11-27T06:22:55.458Z,101773.34
2022-11-27T06:25:22.762Z,101771.13
2022-11-27T06:27:49.485Z,101777.59
2022-11-27T06:30:16.117Z,101766.28
2022-11-27T06:32:42.670Z,101758.09
2022-11-27T06:35:10.056Z,101757.84
2022-11-27T06:37:36.694Z,101748.22
2022-11-27T06:40:03.856Z,101753.28
2022-11-27T06:42:30.749Z,101755.84
2022-11-27T06:44:57.592Z,101740.63
2022-11-27T06:47:24.286Z,101737.66
2022-11-27T06:49:50.800Z,101733.28
2022-11-27T06:52:19.826Z,101735.97
2022-11-27T06:54:48.626Z,101726.94
2022-11-27T06:57:16.978Z,101723.38
2022-11-27T06:59:44.025Z,101713.38
2022-11-27T07:02:13.645Z,101711.56
2022-11-27T07:04:42.718Z,101719.44
2022-11-27T07:07:09.832Z,101717.63
2022-11-27T07:09:36.251Z,101714.81
2022-11-27T07:12:04.316Z,101713.69
2022-11-27T07:14:31.006Z,101716.09
2022-11-27T07:16:58.172Z,101712.16
2022-11-27T07:19:24.667Z,101711.47
2022-11-27T07:21:51.047Z,101711.06
2022-11-27T07:24:18.192Z,101705.69
2022-11-27T07:26:48.340Z,101687.59
2022-11-27T07:29:14.712Z,101675.03
2022-11-27T07:31:44.080Z,101670.41
2022-11-27T07:34:15.955Z,101670.41
2022-11-27T07:36:43.827Z,101661.88
2022-11-27T07:39:10.294Z,101663.91
2022-11-27T07:41:37.410Z,101653.03
2022-11-27T07:44:04.058Z,101657.13
2022-11-27T07:46:30.987Z,101656.13
2022-11-27T07:48:58.079Z,101656.00
2022-11-27T07:51:24.607Z,101654.03
2022-11-27T07:53:54.367Z,101659.16
2022-11-27T07:56:21.910Z,101654.94
2022-11-27T07:58:48.551Z,101650.09
2022-11-27T08:01:17.024Z,101641.78
2022-11-27T08:03:45.011Z,101640.81
2022-11-27T08:06:22.112Z,101631.75
2022-11-27T08:08:49.310Z,101634.88
2022-11-27T08:11:20.980Z,101629.50
2022-11-27T08:13:47.909Z,101622.03
2022-11-27T08:16:14.586Z,101622.75
2022-11-27T08:18:44.954Z,101619.63
2022-11-27T08:21:15.384Z,101621.19
2022-11-27T08:23:42.462Z,101623.44
2022-11-27T08:26:09.703Z,101626.72
2022-11-27T08:28:36.636Z,101658.56
2022-11-27T08:31:04.426Z,101657.00
2022-11-27T08:33:32.857Z,101648.66
2022-11-27T08:36:00.899Z,101652.63
2022-11-27T08:38:27.296Z,101646.41
2022-11-27T08:40:55.295Z,101655.63
2022-11-27T08:43:22.286Z,101669.75
2022-11-27T08:45:48.902Z,101657.44
2022-11-27T08:48:15.425Z,101654.47
2022-11-27T08:50:41.978Z,101628.31
2022-11-27T08:53:09.594Z,101634.09
2022-11-27T08:55:36.276Z,101634.38
2022-11-27T08:58:03.937Z,101642.88
2022-11-27T09:00:31.324Z,101639.75
2022-11-27T09:03:01.038Z,101636.06
2022-11-27T09:05:27.993Z,101646.53
2022-11-27T09:07:55.144Z,101631.41
2022-11-27T09:10:30.641Z,101631.25
2022-11-27T09:12:59.416Z,101624.72
2022-11-27T09:15:26.920Z,101617.22
2022-11-27T09:17:53.602Z,101617.09
2022-11-27T09:20:20.159Z,101610.59
2022-11-27T09:22:46.508Z,101612.97
2022-11-27T09:25:12.947Z,101605.31
2022-11-27T09:27:39.368Z,101615.09
2022-11-27T09:30:07.428Z,101609.16
2022-11-27T09:32:34.025Z,101600.09
2022-11-27T09:35:01.521Z,101610.56
2022-11-27T09:37:27.920Z,101598.38
2022-11-27T09:39:55.588Z,101582.78
2022-11-27T09:42:31.060Z,101592.53
2022-11-27T09:44:59.270Z,101584.19
2022-11-27T09:47:41.038Z,101584.03
2022-11-27T09:50:13.038Z,101584.47
2022-11-27T09:52:44.600Z,101579.66
2022-11-27T09:55:24.654Z,101583.16
2022-11-27T09:58:14.569Z,101579.03
2022-11-27T10:00:43.549Z,101580.28
2022-11-27T10:03:13.942Z,101572.63
2022-11-27T10:05:57.779Z,101583.63
2022-11-27T10:08:44.930Z,101581.50
2022-11-27T10:11:38.268Z,101588.28
2022-11-27T10:14:16.884Z,101570.25
2022-11-27T10:17:23.337Z,101578.03
2022-11-27T10:19:53.963Z,101560.59
2022-11-27T10:22:28.596Z,101563.06
2022-11-27T10:25:01.101Z,101564.31
2022-11-27T10:27:50.870Z,101558.06
2022-11-27T10:30:26.417Z,101556.22
2022-11-27T10:32:56.582Z,101555.00
2022-11-27T10:35:24.930Z,101555.69
2022-11-27T10:38:24.097Z,101557.38
2022-11-27T10:41:01.271Z,101537.53
2022-11-27T10:43:27.674Z,101537.44
2022-11-27T10:45:57.268Z,101530.22
2022-11-27T10:48:29.661Z,101531.44
2022-11-27T10:50:56.572Z,101532.81
2022-11-27T10:53:35.591Z,101540.75
2022-11-27T10:56:02.155Z,101518.28
2022-11-27T10:58:29.332Z,101520.69
2022-11-27T11:01:07.069Z,101505.06
2022-11-27T11:03:34.025Z,101513.50
2022-11-27T11:06:21.288Z,101516.03
2022-11-27T11:09:02.941Z,101512.88
2022-11-27T11:11:29.591Z,101506.34
2022-11-27T11:14:01.809Z,101498.63
2022-11-27T11:16:35.203Z,101488.81
2022-11-27T11:19:02.788Z,101489.84
2022-11-27T11:21:34.397Z,101488.16
2022-11-27T11:24:15.154Z,101485.75
2022-11-27T11:26:53.035Z,101458.50
2022-11-27T11:29:45.345Z,101469.94
2022-11-27T11:32:21.339Z,101452.63
2022-11-27T11:34:56.236Z,101439.31
2022-11-27T11:37:30.464Z,101437.66
2022-11-27T11:40:11.939Z,101433.44
2022-11-27T11:43:12.787Z,101429.56
2022-11-27T11:46:03.683Z,101400.53
2022-11-27T11:48:30.336Z,101404.25
2022-11-27T11:50:56.756Z,101400.69
2022-11-27T11:53:29.438Z,101401.53
2022-11-27T11:56:07.361Z,101393.59
2022-11-27T11:58:58.910Z,101392.59
2022-11-27T12:01:38.748Z,101376.09
2022-11-27T12:04:10.488Z,101381.03
2022-11-27T12:06:59.598Z,101369.91
2022-11-27T12:09:29.193Z,101359.47
2022-11-27T12:12:22.043Z,101346.84
2022-11-27T12:14:52.571Z,101361.84
2022-11-27T12:17:45.998Z,101343.34
2022-11-27T12:20:17.805Z,101335.28
2022-11-27T12:23:00.486Z,101321.63
2022-11-27T12:25:34.176Z,101318.06
2022-11-27T12:28:19.159Z,101316.22
2022-11-27T12:31:11.576Z,101303.94
2022-11-27T12:33:59.961Z,101304.78
2022-11-27T12:37:05.822Z,101286.88
2022-11-27T12:39:48.967Z,101284.34
2022-11-27T12:42:27.778Z,101286.69
2022-11-27T12:44:57.808Z,101274.91
2022-11-27T12:47:37.261Z,101274.41
2022-11-27T12:50:08.956Z,101262.44
2022-11-27T12:53:30.614Z,101265.47
2022-11-27T12:56:18.564Z,101250.81
2022-11-27T12:59:02.293Z,101246.59
2022-11-27T13:01:39.653Z,101245.59
2022-11-27T13:04:38.053Z,101235.19
2022-11-27T13:07:59.151Z,101248.69
2022-11-27T13:10:58.467Z,101237.88
2022-11-27T13:14:15.429Z,101228.06
2022-11-27T13:17:01.693Z,101221.16
2022-11-27T13:19:37.300Z,101219.81
2022-11-27T13:22:45.419Z,101214.25
2022-11-27T13:28:27.621Z,101207.16
2022-11-27T13:30:58.714Z,101209.38
2022-11-27T13:33:46.310Z,101214.59
2022-11-27T13:39:59.813Z,101209.53
2022-11-27T13:42:29.579Z,101198.25
2022-11-27T13:45:03.098Z,101198.25
2022-11-27T13:47:42.763Z,101202.09
2022-11-27T13:50:14.756Z,101189.78
2022-11-27T13:52:59.921Z,101199.41
2022-11-27T13:55:29.060Z,101203.13
2022-11-27T13:57:59.733Z,101201.13
2022-11-27T14:00:36.973Z,101201.28
2022-11-27T14:03:10.615Z,101204.81
2022-11-27T14:05:44.560Z,101210.19
2022-11-27T14:08:19.490Z,101198.06
2022-11-27T14:11:20.209Z,101206.31
2022-11-27T14:13:52.202Z,101198.72
2022-11-27T15:29:05.880Z,101136.81
2022-11-27T15:31:33.298Z,101135.94
2022-11-27T15:34:05.554Z,101128.34
2022-11-27T15:36:55.351Z,101135.06
2022-11-27T15:39:25.827Z,101149.06
2022-11-27T15:41:57.084Z,101147.06
2022-11-27T15:44:35.489Z,101155.63
2022-11-27T15:47:07.520Z,101150.06
2022-11-27T15:49:36.434Z,101152.25
2022-11-27T15:52:02.933Z,101163.69
2022-11-27T15:54:29.364Z,101157.81
2022-11-27T15:56:58.358Z,101157.47
2022-11-27T15:59:34.139Z,101152.41
2022-11-27T16:02:13.190Z,101141.09
2022-11-27T16:04:43.970Z,101145.47
2022-11-27T16:07:19.467Z,101131.50
2022-11-27T16:09:52.093Z,101132.84
2022-11-27T16:15:53.561Z,101118.13
2022-11-27T16:18:21.516Z,101102.81
2022-11-27T16:20:56.616Z,101098.25
2022-11-27T16:23:26.488Z,101100.28
2022-11-27T16:26:09.879Z,101094.34
2022-11-27T16:28:39.629Z,101086.44
2022-11-27T16:31:16.378Z,101086.44
2022-11-27T16:34:11.919Z,101093.50
2022-11-27T16:36:40.323Z,101096.56
2022-11-27T16:39:06.671Z,101102.66
2022-11-27T16:41:33.207Z,101094.88
2022-11-27T16:44:12.902Z,101087.31
2022-11-27T16:46:39.911Z,101092.53
2022-11-27T16:49:10.342Z,101081.28
2022-11-27T16:51:42.778Z,101071.19
2022-11-27T16:54:11.025Z,101069.16
2022-11-27T16:56:38.583Z,101062.25
2022-11-27T16:59:09.430Z,101060.06
2022-11-27T17:01:42.672Z,101063.28
2022-11-27T17:04:19.576Z,101058.72
2022-11-27T17:06:53.620Z,101060.53
2022-11-27T17:09:32.052Z,101047.91
2022-11-27T17:12:05.316Z,101052.28
2022-11-27T17:14:31.980Z,101040.47
2022-11-27T17:17:04.429Z,101031.38
2022-11-27T17:19:43.297Z,101030.56
2022-11-27T17:22:10.397Z,101019.78
2022-11-27T17:24:36.853Z,101016.41
2022-11-27T17:27:03.310Z,101003.63
2022-11-27T17:29:33.557Z,101003.63
2022-11-27T17:32:06.814Z,100990.13
2022-11-27T17:34:33.714Z,100995.00
2022-11-27T17:37:00.379Z,100992.16
2022-11-27T17:39:26.855Z,100988.59
2022-11-27T17:41:53.457Z,100988.75
2022-11-27T17:44:19.944Z,100976.47
2022-11-27T17:46:49.851Z,100974.13
2022-11-27T17:49:16.737Z,100976.50
2022-11-27T17:51:44.366Z,100979.19
2022-11-27T17:54:35.779Z,100975.47
2022-11-27T17:57:02.784Z,100969.91
2022-11-27T17:59:31.594Z,100966.56
2022-11-27T18:01:58.383Z,100957.63
2022-11-27T18:04:24.998Z,100964.84
2022-11-27T18:06:51.879Z,100960.16
2022-11-27T18:09:21.737Z,100949.72
2022-11-27T18:11:48.282Z,100939.28
2022-11-27T18:14:17.098Z,100927.66
2022-11-27T18:16:43.756Z,100915.91
2022-11-27T18:19:12.824Z,100921.78
2022-11-27T18:21:39.495Z,100940.78
2022-11-27T18:24:23.996Z,100956.84
2022-11-27T18:27:08.619Z,100951.66
2022-11-27T18:29:42.512Z,100953.28
2022-11-27T18:32:10.100Z,100936.41
2022-11-27T18:34:38.348Z,100935.56
2022-11-27T18:37:05.084Z,100932.22
2022-11-27T18:39:32.008Z,100934.91
2022-11-27T18:41:58.461Z,100926.50
2022-11-27T18:44:25.180Z,100921.06
2022-11-27T18:46:51.761Z,100911.97
2022-11-27T18:49:18.417Z,100912.63
2022-11-27T18:51:45.066Z,100910.94
2022-11-27T18:54:11.990Z,100900.34
2022-11-27T18:56:39.037Z,100905.94
2022-11-27T18:59:06.239Z,100902.06
2022-11-27T19:01:39.599Z,100895.81
2022-11-27T19:04:07.622Z,100890.75
2022-11-27T19:06:35.141Z,100885.38
2022-11-27T19:09:01.741Z,100883.38
2022-11-27T19:11:30.244Z,100880.31
2022-11-27T19:13:57.276Z,100872.94
2022-11-27T19:16:25.898Z,100873.25
2022-11-27T19:18:52.777Z,100878.47
2022-11-27T19:21:30.317Z,100879.66
2022-11-27T19:24:12.128Z,100882.34
2022-11-27T19:26:38.932Z,100879.63
2022-11-27T19:29:07.812Z,100885.84
2022-11-27T19:31:37.880Z,100879.63
2022-11-27T19:34:05.398Z,100882.16
2022-11-27T19:36:32.805Z,100882.69
2022-11-27T19:39:01.171Z,100875.94
2022-11-27T19:41:28.076Z,100865.88
2022-11-27T19:43:54.589Z,100864.50
2022-11-27T19:46:22.490Z,100875.25
2022-11-27T19:48:49.918Z,100867.88
2022-11-27T19:51:36.651Z,100870.56
2022-11-27T19:54:28.921Z,100853.94
2022-11-27T19:57:15.724Z,100853.06
2022-11-27T20:00:17.062Z,100861.66
